sensor_id;sensor_type;location;lat;lon;timestamp;pressure;altitude;pressure_sealevel;temperature
42197;BMP280;27866;48.146;17.098;2023-05-10T00:03:57;99592.16;;;15.16
42197;BMP280;27866;48.146;17.098;2023-05-10T00:08:08;99576.34;;;15.08
42197;BMP280;27866;48.146;17.098;2023-05-10T00:12:19;99591.72;;;15.02
42197;BMP280;27866;48.146;17.098;2023-05-10T00:16:31;99576.19;;;14.92
42197;BMP280;27866;48.146;17.098;2023-05-10T00:20:42;99583.72;;;14.85
42197;BMP280;27866;48.146;17.098;2023-05-10T00:24:53;99570.38;;;14.79
42197;BMP280;27866;48.146;17.098;2023-05-10T00:29:04;99570.25;;;14.71
42197;BMP280;27866;48.146;17.098;2023-05-10T00:33:17;99562.66;;;14.68
42197;BMP280;27866;48.146;17.098;2023-05-10T00:37:29;99569.94;;;14.65
42197;BMP280;27866;48.146;17.098;2023-05-10T00:41:40;99575.69;;;14.59
42197;BMP280;27866;48.146;17.098;2023-05-10T00:45:53;99564.41;;;14.49
42197;BMP280;27866;48.146;17.098;2023-05-10T00:50:05;99567.53;;;14.44
42197;BMP280;27866;48.146;17.098;2023-05-10T00:54:16;99561.53;;;14.43
42197;BMP280;27866;48.146;17.098;2023-05-10T00:58:28;99556.69;;;14.39
42197;BMP280;27866;48.146;17.098;2023-05-10T01:02:40;99551.03;;;14.34
42197;BMP280;27866;48.146;17.098;2023-05-10T01:06:53;99544.34;;;14.32
42197;BMP280;27866;48.146;17.098;2023-05-10T01:11:04;99551.84;;;14.25
42197;BMP280;27866;48.146;17.098;2023-05-10T01:15:16;99544.56;;;14.20
42197;BMP280;27866;48.146;17.098;2023-05-10T01:19:30;99547.44;;;14.17
42197;BMP280;27866;48.146;17.098;2023-05-10T01:29:18;99540.69;;;14.05
42197;BMP280;27866;48.146;17.098;2023-05-10T01:33:43;99530.25;;;14.05
42197;BMP280;27866;48.146;17.098;2023-05-10T01:42:46;99532.13;;;13.94
42197;BMP280;27866;48.146;17.098;2023-05-10T01:47:09;99531.69;;;13.89
42197;BMP280;27866;48.146;17.098;2023-05-10T01:51:27;99525.22;;;13.84
42197;BMP280;27866;48.146;17.098;2023-05-10T01:55:46;99521.50;;;13.77
42197;BMP280;27866;48.146;17.098;2023-05-10T01:59:58;99525.34;;;13.82
42197;BMP280;27866;48.146;17.098;2023-05-10T02:04:11;99525.03;;;13.76
42197;BMP280;27866;48.146;17.098;2023-05-10T02:08:26;99523.66;;;13.72
42197;BMP280;27866;48.146;17.098;2023-05-10T02:12:43;99520.59;;;13.67
42197;BMP280;27866;48.146;17.098;2023-05-10T02:16:57;99508.09;;;13.62
42197;BMP280;27866;48.146;17.098;2023-05-10T02:21:10;99519.25;;;13.53
42197;BMP280;27866;48.146;17.098;2023-05-10T02:25:23;99521.97;;;13.51
42197;BMP280;27866;48.146;17.098;2023-05-10T02:29:36;99516.91;;;13.50
42197;BMP280;27866;48.146;17.098;2023-05-10T02:33:48;99515.75;;;13.43
42197;BMP280;27866;48.146;17.098;2023-05-10T02:38:00;99518.34;;;13.43
42197;BMP280;27866;48.146;17.098;2023-05-10T02:42:16;99518.78;;;13.39
42197;BMP280;27866;48.146;17.098;2023-05-10T02:46:29;99517.75;;;13.31
42197;BMP280;27866;48.146;17.098;2023-05-10T02:50:44;99515.50;;;13.26
42197;BMP280;27866;48.146;17.098;2023-05-10T02:55:00;99523.00;;;13.20
42197;BMP280;27866;48.146;17.098;2023-05-10T02:59:14;99525.16;;;13.15
42197;BMP280;27866;48.146;17.098;2023-05-10T03:03:25;99522.81;;;13.12
42197;BMP280;27866;48.146;17.098;2023-05-10T03:07:37;99522.59;;;13.04
42197;BMP280;27866;48.146;17.098;2023-05-10T03:12:27;99521.78;;;13.04
42197;BMP280;27866;48.146;17.098;2023-05-10T03:17:04;99517.53;;;13.03
42197;BMP280;27866;48.146;17.098;2023-05-10T03:21:18;99524.72;;;13.10
42197;BMP280;27866;48.146;17.098;2023-05-10T03:25:35;99528.03;;;13.02
42197;BMP280;27866;48.146;17.098;2023-05-10T03:29:50;99522.13;;;13.00
42197;BMP280;27866;48.146;17.098;2023-05-10T03:34:02;99532.31;;;13.03
42197;BMP280;27866;48.146;17.098;2023-05-10T03:38:14;99541.88;;;13.02
42197;BMP280;27866;48.146;17.098;2023-05-10T03:42:25;99530.53;;;13.03
42197;BMP280;27866;48.146;17.098;2023-05-10T03:46:36;99530.06;;;12.98
42197;BMP280;27866;48.146;17.098;2023-05-10T03:50:47;99533.94;;;13.03
42197;BMP280;27866;48.146;17.098;2023-05-10T03:55:00;99548.34;;;13.07
42197;BMP280;27866;48.146;17.098;2023-05-10T03:59:13;99537.72;;;13.10
42197;BMP280;27866;48.146;17.098;2023-05-10T04:03:25;99549.75;;;13.11
42197;BMP280;27866;48.146;17.098;2023-05-10T04:07:37;99551.63;;;13.20
42197;BMP280;27866;48.146;17.098;2023-05-10T04:11:48;99551.91;;;13.26
42197;BMP280;27866;48.146;17.098;2023-05-10T04:15:59;99565.25;;;13.32
42197;BMP280;27866;48.146;17.098;2023-05-10T04:20:11;99574.00;;;13.32
42197;BMP280;27866;48.146;17.098;2023-05-10T04:24:23;99568.88;;;13.41
42197;BMP280;27866;48.146;17.098;2023-05-10T04:28:34;99562.16;;;13.58
42197;BMP280;27866;48.146;17.098;2023-05-10T04:32:45;99578.34;;;13.62
42197;BMP280;27866;48.146;17.098;2023-05-10T04:36:56;99570.97;;;13.66
42197;BMP280;27866;48.146;17.098;2023-05-10T04:41:09;99577.34;;;13.73
42197;BMP280;27866;48.146;17.098;2023-05-10T04:45:21;99584.72;;;13.88
42197;BMP280;27866;48.146;17.098;2023-05-10T04:49:32;99572.75;;;13.86
42197;BMP280;27866;48.146;17.098;2023-05-10T04:53:44;99582.84;;;13.99
42197;BMP280;27866;48.146;17.098;2023-05-10T04:57:56;99577.53;;;14.10
42197;BMP280;27866;48.146;17.098;2023-05-10T05:02:08;99573.78;;;14.32
42197;BMP280;27866;48.146;17.098;2023-05-10T05:06:19;99574.94;;;14.39
42197;BMP280;27866;48.146;17.098;2023-05-10T05:10:31;99578.81;;;14.53
42197;BMP280;27866;48.146;17.098;2023-05-10T05:14:43;99573.09;;;14.68
42197;BMP280;27866;48.146;17.098;2023-05-10T05:18:54;99582.63;;;14.88
42197;BMP280;27866;48.146;17.098;2023-05-10T05:23:05;99579.09;;;14.98
42197;BMP280;27866;48.146;17.098;2023-05-10T05:27:16;99587.19;;;15.04
42197;BMP280;27866;48.146;17.098;2023-05-10T05:31:28;99586.53;;;15.21
42197;BMP280;27866;48.146;17.098;2023-05-10T05:35:39;99588.56;;;15.26
42197;BMP280;27866;48.146;17.098;2023-05-10T05:39:51;99577.59;;;15.41
42197;BMP280;27866;48.146;17.098;2023-05-10T05:44:02;99587.47;;;15.47
42197;BMP280;27866;48.146;17.098;2023-05-10T05:48:13;99590.22;;;15.64
42197;BMP280;27866;48.146;17.098;2023-05-10T05:52:24;99592.94;;;15.81
42197;BMP280;27866;48.146;17.098;2023-05-10T05:56:35;99592.06;;;16.08
42197;BMP280;27866;48.146;17.098;2023-05-10T06:00:47;99579.19;;;16.33
42197;BMP280;27866;48.146;17.098;2023-05-10T06:04:58;99584.16;;;16.62
42197;BMP280;27866;48.146;17.098;2023-05-10T06:09:09;99581.56;;;16.79
42197;BMP280;27866;48.146;17.098;2023-05-10T06:13:21;99580.44;;;16.90
42197;BMP280;27866;48.146;17.098;2023-05-10T06:17:32;99584.34;;;17.03
42197;BMP280;27866;48.146;17.098;2023-05-10T06:21:43;99584.50;;;17.36
42197;BMP280;27866;48.146;17.098;2023-05-10T06:25:55;99590.09;;;17.57
42197;BMP280;27866;48.146;17.098;2023-05-10T06:30:06;99594.28;;;17.68
42197;BMP280;27866;48.146;17.098;2023-05-10T06:34:19;99593.44;;;17.67
42197;BMP280;27866;48.146;17.098;2023-05-10T06:38:30;99591.25;;;17.72
42197;BMP280;27866;48.146;17.098;2023-05-10T06:42:41;99593.28;;;17.68
42197;BMP280;27866;48.146;17.098;2023-05-10T06:46:52;99597.75;;;17.85
42197;BMP280;27866;48.146;17.098;2023-05-10T06:51:06;99598.50;;;23.22
42197;BMP280;27866;48.146;17.098;2023-05-10T06:55:17;99585.84;;;26.57
42197;BMP280;27866;48.146;17.098;2023-05-10T06:59:28;99569.81;;;24.26
42197;BMP280;27866;48.146;17.098;2023-05-10T07:03:39;99586.75;;;22.26
42197;BMP280;27866;48.146;17.098;2023-05-10T07:07:51;99592.09;;;21.82
42197;BMP280;27866;48.146;17.098;2023-05-10T07:12:03;99587.06;;;21.95
42197;BMP280;27866;48.146;17.098;2023-05-10T07:16:14;99586.50;;;22.77
42197;BMP280;27866;48.146;17.098;2023-05-10T07:20:25;99571.44;;;25.32
42197;BMP280;27866;48.146;17.098;2023-05-10T07:24:36;99578.34;;;22.72
42197;BMP280;27866;48.146;17.098;2023-05-10T07:28:48;99584.59;;;24.68
42197;BMP280;27866;48.146;17.098;2023-05-10T07:32:59;99588.16;;;30.87
42197;BMP280;27866;48.146;17.098;2023-05-10T07:37:11;99586.66;;;33.52
42197;BMP280;27866;48.146;17.098;2023-05-10T07:41:22;99587.66;;;33.46
42197;BMP280;27866;48.146;17.098;2023-05-10T07:45:34;99560.78;;;28.28
42197;BMP280;27866;48.146;17.098;2023-05-10T07:49:45;99589.13;;;25.77
42197;BMP280;27866;48.146;17.098;2023-05-10T07:53:56;99566.00;;;25.01
42197;BMP280;27866;48.146;17.098;2023-05-10T07:58:08;99565.66;;;23.10
42197;BMP280;27866;48.146;17.098;2023-05-10T08:02:20;99583.41;;;21.82
42197;BMP280;27866;48.146;17.098;2023-05-10T08:06:31;99576.66;;;21.79
42197;BMP280;27866;48.146;17.098;2023-05-10T08:10:42;99576.28;;;23.02
42197;BMP280;27866;48.146;17.098;2023-05-10T08:14:53;99577.31;;;26.36
42197;BMP280;27866;48.146;17.098;2023-05-10T08:19:04;99583.09;;;25.44
42197;BMP280;27866;48.146;17.098;2023-05-10T08:23:16;99574.72;;;23.22
42197;BMP280;27866;48.146;17.098;2023-05-10T08:27:27;99573.72;;;23.08
42197;BMP280;27866;48.146;17.098;2023-05-10T08:31:38;99573.28;;;22.21
42197;BMP280;27866;48.146;17.098;2023-05-10T08:35:50;99573.56;;;23.85
42197;BMP280;27866;48.146;17.098;2023-05-10T08:40:02;99577.91;;;23.52
42197;BMP280;27866;48.146;17.098;2023-05-10T08:44:14;99572.41;;;22.70
42197;BMP280;27866;48.146;17.098;2023-05-10T08:48:26;99579.97;;;24.43
42197;BMP280;27866;48.146;17.098;2023-05-10T08:52:40;99589.44;;;23.85
42197;BMP280;27866;48.146;17.098;2023-05-10T08:56:52;99611.59;;;26.00
42197;BMP280;27866;48.146;17.098;2023-05-10T09:01:05;99586.00;;;28.49
42197;BMP280;27866;48.146;17.098;2023-05-10T09:05:16;99568.06;;;28.63
42197;BMP280;27866;48.146;17.098;2023-05-10T09:09:29;99561.72;;;27.62
42197;BMP280;27866;48.146;17.098;2023-05-10T09:13:40;99589.84;;;27.82
42197;BMP280;27866;48.146;17.098;2023-05-10T09:17:52;99584.31;;;33.35
42197;BMP280;27866;48.146;17.098;2023-05-10T09:22:05;99559.06;;;31.40
42197;BMP280;27866;48.146;17.098;2023-05-10T09:26:16;99561.69;;;29.62
42197;BMP280;27866;48.146;17.098;2023-05-10T09:30:30;99583.69;;;29.29
42197;BMP280;27866;48.146;17.098;2023-05-10T09:34:42;99553.66;;;32.21
42197;BMP280;27866;48.146;17.098;2023-05-10T09:38:53;99567.25;;;34.18
42197;BMP280;27866;48.146;17.098;2023-05-10T09:43:07;99566.50;;;37.11
42197;BMP280;27866;48.146;17.098;2023-05-10T09:47:19;99566.31;;;39.62
42197;BMP280;27866;48.146;17.098;2023-05-10T09:51:30;99576.78;;;39.87
42197;BMP280;27866;48.146;17.098;2023-05-10T09:55:46;99564.50;;;39.35
42197;BMP280;27866;48.146;17.098;2023-05-10T10:00:00;99560.88;;;39.17
42197;BMP280;27866;48.146;17.098;2023-05-10T10:04:12;99526.78;;;37.22
42197;BMP280;27866;48.146;17.098;2023-05-10T10:08:23;99555.09;;;39.87
42197;BMP280;27866;48.146;17.098;2023-05-10T10:12:35;99547.09;;;41.53
42197;BMP280;27866;48.146;17.098;2023-05-10T10:16:46;99537.78;;;40.93
42197;BMP280;27866;48.146;17.098;2023-05-10T10:20:58;99513.63;;;38.27
42197;BMP280;27866;48.146;17.098;2023-05-10T10:25:12;99519.91;;;37.85
42197;BMP280;27866;48.146;17.098;2023-05-10T10:29:44;99509.53;;;35.34
42197;BMP280;27866;48.146;17.098;2023-05-10T10:34:08;99520.69;;;35.66
42197;BMP280;27866;48.146;17.098;2023-05-10T10:38:21;99515.97;;;34.69
42197;BMP280;27866;48.146;17.098;2023-05-10T10:42:54;99515.03;;;35.73
42197;BMP280;27866;48.146;17.098;2023-05-10T10:51:22;99520.84;;;34.77
42197;BMP280;27866;48.146;17.098;2023-05-10T10:55:34;99505.31;;;35.77
42197;BMP280;27866;48.146;17.098;2023-05-10T10:59:45;99506.44;;;35.90
42197;BMP280;27866;48.146;17.098;2023-05-10T11:08:18;99512.50;;;37.63
42197;BMP280;27866;48.146;17.098;2023-05-10T11:12:30;99495.19;;;39.07
42197;BMP280;27866;48.146;17.098;2023-05-10T11:16:42;99502.31;;;38.75
42197;BMP280;27866;48.146;17.098;2023-05-10T11:21:01;99502.38;;;38.15
42197;BMP280;27866;48.146;17.098;2023-05-10T11:25:26;99475.25;;;36.94
42197;BMP280;27866;48.146;17.098;2023-05-10T11:29:37;99507.22;;;34.92
42197;BMP280;27866;48.146;17.098;2023-05-10T11:33:58;99495.06;;;36.80
42197;BMP280;27866;48.146;17.098;2023-05-10T11:38:11;99475.72;;;35.91
42197;BMP280;27866;48.146;17.098;2023-05-10T11:42:22;99491.63;;;36.31
42197;BMP280;27866;48.146;17.098;2023-05-10T11:46:33;99488.22;;;37.91
42197;BMP280;27866;48.146;17.098;2023-05-10T11:50:46;99479.56;;;40.24
42197;BMP280;27866;48.146;17.098;2023-05-10T11:54:57;99474.13;;;40.68
42197;BMP280;27866;48.146;17.098;2023-05-10T11:59:09;99487.16;;;41.23
42197;BMP280;27866;48.146;17.098;2023-05-10T12:03:20;99491.41;;;41.16
42197;BMP280;27866;48.146;17.098;2023-05-10T12:07:31;99473.03;;;39.23
42197;BMP280;27866;48.146;17.098;2023-05-10T12:11:43;99471.22;;;40.65
42197;BMP280;27866;48.146;17.098;2023-05-10T12:15:57;99462.06;;;39.86
42197;BMP280;27866;48.146;17.098;2023-05-10T12:20:20;99474.28;;;40.90
42197;BMP280;27866;48.146;17.098;2023-05-10T12:24:35;99460.16;;;40.62
42197;BMP280;27866;48.146;17.098;2023-05-10T12:28:46;99461.66;;;39.92
42197;BMP280;27866;48.146;17.098;2023-05-10T12:33:06;99457.22;;;40.01
42197;BMP280;27866;48.146;17.098;2023-05-10T12:37:27;99460.66;;;37.47
42197;BMP280;27866;48.146;17.098;2023-05-10T12:41:38;99450.66;;;37.47
42197;BMP280;27866;48.146;17.098;2023-05-10T12:45:49;99450.84;;;38.80
42197;BMP280;27866;48.146;17.098;2023-05-10T12:50:02;99439.94;;;39.26
42197;BMP280;27866;48.146;17.098;2023-05-10T12:54:13;99448.03;;;39.79
42197;BMP280;27866;48.146;17.098;2023-05-10T12:58:24;99425.78;;;36.23
42197;BMP280;27866;48.146;17.098;2023-05-10T13:02:36;99421.09;;;34.43
42197;BMP280;27866;48.146;17.098;2023-05-10T13:06:47;99421.06;;;37.70
42197;BMP280;27866;48.146;17.098;2023-05-10T13:10:59;99404.94;;;33.98
42197;BMP280;27866;48.146;17.098;2023-05-10T13:15:11;99409.19;;;30.03
42197;BMP280;27866;48.146;17.098;2023-05-10T13:19:22;99416.19;;;32.25
42197;BMP280;27866;48.146;17.098;2023-05-10T13:23:34;99428.06;;;34.89
42197;BMP280;27866;48.146;17.098;2023-05-10T13:27:45;99406.41;;;36.01
42197;BMP280;27866;48.146;17.098;2023-05-10T13:31:57;99398.41;;;36.72
42197;BMP280;27866;48.146;17.098;2023-05-10T13:36:08;99395.97;;;36.76
42197;BMP280;27866;48.146;17.098;2023-05-10T13:40:19;99386.50;;;37.67
42197;BMP280;27866;48.146;17.098;2023-05-10T13:44:30;99387.75;;;37.37
42197;BMP280;27866;48.146;17.098;2023-05-10T13:48:44;99394.56;;;36.88
42197;BMP280;27866;48.146;17.098;2023-05-10T13:52:55;99385.38;;;35.60
42197;BMP280;27866;48.146;17.098;2023-05-10T13:57:06;99381.13;;;33.45
42197;BMP280;27866;48.146;17.098;2023-05-10T14:01:18;99379.44;;;32.42
42197;BMP280;27866;48.146;17.098;2023-05-10T14:05:29;99382.09;;;33.65
42197;BMP280;27866;48.146;17.098;2023-05-10T14:09:40;99369.91;;;34.83
42197;BMP280;27866;48.146;17.098;2023-05-10T14:13:52;99384.00;;;36.15
42197;BMP280;27866;48.146;17.098;2023-05-10T14:18:03;99392.31;;;33.32
42197;BMP280;27866;48.146;17.098;2023-05-10T14:22:14;99377.56;;;34.01
42197;BMP280;27866;48.146;17.098;2023-05-10T14:26:26;99371.88;;;33.06
42197;BMP280;27866;48.146;17.098;2023-05-10T14:30:38;99375.31;;;31.34
42197;BMP280;27866;48.146;17.098;2023-05-10T14:34:49;99375.41;;;31.39
42197;BMP280;27866;48.146;17.098;2023-05-10T14:39:00;99380.69;;;33.27
42197;BMP280;27866;48.146;17.098;2023-05-10T14:43:11;99362.97;;;31.33
42197;BMP280;27866;48.146;17.098;2023-05-10T14:47:23;99361.59;;;29.66
42197;BMP280;27866;48.146;17.098;2023-05-10T14:51:34;99353.38;;;27.97
42197;BMP280;27866;48.146;17.098;2023-05-10T14:55:47;99367.69;;;27.07
42197;BMP280;27866;48.146;17.098;2023-05-10T14:59:58;99363.50;;;27.71
42197;BMP280;27866;48.146;17.098;2023-05-10T15:04:10;99361.94;;;27.17
42197;BMP280;27866;48.146;17.098;2023-05-10T15:08:21;99374.88;;;26.34
42197;BMP280;27866;48.146;17.098;2023-05-10T15:12:32;99368.66;;;25.98
42197;BMP280;27866;48.146;17.098;2023-05-10T15:16:44;99365.13;;;26.10
42197;BMP280;27866;48.146;17.098;2023-05-10T15:20:55;99369.72;;;26.45
42197;BMP280;27866;48.146;17.098;2023-05-10T15:25:07;99365.38;;;26.02
42197;BMP280;27866;48.146;17.098;2023-05-10T15:29:18;99358.31;;;25.65
42197;BMP280;27866;48.146;17.098;2023-05-10T15:33:30;99363.44;;;25.16
42197;BMP280;27866;48.146;17.098;2023-05-10T15:37:42;99370.38;;;25.17
42197;BMP280;27866;48.146;17.098;2023-05-10T15:41:53;99373.63;;;25.19
42197;BMP280;27866;48.146;17.098;2023-05-10T15:46:05;99359.72;;;24.92
42197;BMP280;27866;48.146;17.098;2023-05-10T15:50:17;99360.94;;;24.89
42197;BMP280;27866;48.146;17.098;2023-05-10T15:54:28;99361.53;;;24.79
42197;BMP280;27866;48.146;17.098;2023-05-10T15:58:40;99356.81;;;24.62
42197;BMP280;27866;48.146;17.098;2023-05-10T16:02:52;99357.94;;;24.34
42197;BMP280;27866;48.146;17.098;2023-05-10T16:07:04;99353.81;;;24.19
42197;BMP280;27866;48.146;17.098;2023-05-10T16:11:15;99360.28;;;24.10
42197;BMP280;27866;48.146;17.098;2023-05-10T16:15:27;99368.72;;;23.87
42197;BMP280;27866;48.146;17.098;2023-05-10T16:19:38;99356.63;;;23.79
42197;BMP280;27866;48.146;17.098;2023-05-10T16:23:49;99354.00;;;23.79
42197;BMP280;27866;48.146;17.098;2023-05-10T16:28:01;99357.22;;;23.74
42197;BMP280;27866;48.146;17.098;2023-05-10T16:32:12;99359.59;;;23.63
42197;BMP280;27866;48.146;17.098;2023-05-10T16:36:23;99358.97;;;23.61
42197;BMP280;27866;48.146;17.098;2023-05-10T16:40:34;99366.44;;;23.58
42197;BMP280;27866;48.146;17.098;2023-05-10T16:44:46;99371.44;;;23.40
42197;BMP280;27866;48.146;17.098;2023-05-10T16:48:57;99374.91;;;23.21
42197;BMP280;27866;48.146;17.098;2023-05-10T16:53:09;99370.88;;;23.04
42197;BMP280;27866;48.146;17.098;2023-05-10T16:57:21;99379.13;;;22.95
42197;BMP280;27866;48.146;17.098;2023-05-10T17:01:33;99382.22;;;22.98
42197;BMP280;27866;48.146;17.098;2023-05-10T17:05:44;99382.34;;;23.11
42197;BMP280;27866;48.146;17.098;2023-05-10T17:09:55;99386.00;;;23.10
42197;BMP280;27866;48.146;17.098;2023-05-10T17:14:09;99386.03;;;22.96
42197;BMP280;27866;48.146;17.098;2023-05-10T17:18:21;99399.78;;;22.92
42197;BMP280;27866;48.146;17.098;2023-05-10T17:22:32;99399.13;;;22.83
42197;BMP280;27866;48.146;17.098;2023-05-10T17:26:44;99404.31;;;22.77
42197;BMP280;27866;48.146;17.098;2023-05-10T17:30:56;99411.94;;;22.66
42197;BMP280;27866;48.146;17.098;2023-05-10T17:35:08;99415.31;;;22.60
42197;BMP280;27866;48.146;17.098;2023-05-10T17:39:19;99410.16;;;22.38
42197;BMP280;27866;48.146;17.098;2023-05-10T17:43:31;99407.09;;;22.21
42197;BMP280;27866;48.146;17.098;2023-05-10T17:47:42;99418.56;;;22.00
42197;BMP280;27866;48.146;17.098;2023-05-10T17:51:53;99421.03;;;21.87
42197;BMP280;27866;48.146;17.098;2023-05-10T17:56:05;99419.91;;;21.68
42197;BMP280;27866;48.146;17.098;2023-05-10T18:00:17;99430.31;;;21.48
42197;BMP280;27866;48.146;17.098;2023-05-10T18:04:28;99428.41;;;21.42
42197;BMP280;27866;48.146;17.098;2023-05-10T18:08:40;99433.81;;;21.26
42197;BMP280;27866;48.146;17.098;2023-05-10T18:12:52;99436.22;;;21.14
42197;BMP280;27866;48.146;17.098;2023-05-10T18:17:03;99448.44;;;21.07
42197;BMP280;27866;48.146;17.098;2023-05-10T18:21:14;99446.81;;;21.06
42197;BMP280;27866;48.146;17.098;2023-05-10T18:25:25;99449.97;;;21.02
42197;BMP280;27866;48.146;17.098;2023-05-10T18:29:37;99460.03;;;20.98
42197;BMP280;27866;48.146;17.098;2023-05-10T18:33:49;99460.03;;;20.98
42197;BMP280;27866;48.146;17.098;2023-05-10T18:38:00;99461.03;;;20.97
42197;BMP280;27866;48.146;17.098;2023-05-10T18:42:12;99461.66;;;20.99
42197;BMP280;27866;48.146;17.098;2023-05-10T18:46:23;99467.75;;;21.00
42197;BMP280;27866;48.146;17.098;2023-05-10T18:50:34;99473.22;;;20.90
42197;BMP280;27866;48.146;17.098;2023-05-10T18:54:46;99472.50;;;20.74
42197;BMP280;27866;48.146;17.098;2023-05-10T18:58:57;99483.28;;;20.58
42197;BMP280;27866;48.146;17.098;2023-05-10T19:03:08;99486.63;;;20.44
42197;BMP280;27866;48.146;17.098;2023-05-10T19:07:19;99490.00;;;20.31
42197;BMP280;27866;48.146;17.098;2023-05-10T19:11:31;99487.56;;;20.21
42197;BMP280;27866;48.146;17.098;2023-05-10T19:15:44;99491.19;;;20.13
42197;BMP280;27866;48.146;17.098;2023-05-10T19:19:55;99495.97;;;20.02
42197;BMP280;27866;48.146;17.098;2023-05-10T19:24:07;99500.28;;;19.95
42197;BMP280;27866;48.146;17.098;2023-05-10T19:28:18;99501.59;;;19.91
42197;BMP280;27866;48.146;17.098;2023-05-10T19:32:29;99519.00;;;19.92
42197;BMP280;27866;48.146;17.098;2023-05-10T19:36:40;99514.75;;;19.83
42197;BMP280;27866;48.146;17.098;2023-05-10T19:40:54;99514.41;;;19.86
42197;BMP280;27866;48.146;17.098;2023-05-10T19:45:09;99510.81;;;19.87
42197;BMP280;27866;48.146;17.098;2023-05-10T19:49:21;99509.31;;;19.85
42197;BMP280;27866;48.146;17.098;2023-05-10T19:53:34;99514.75;;;19.83
42197;BMP280;27866;48.146;17.098;2023-05-10T19:57:45;99517.69;;;19.88
42197;BMP280;27866;48.146;17.098;2023-05-10T20:01:57;99519.84;;;19.77
42197;BMP280;27866;48.146;17.098;2023-05-10T20:06:08;99527.25;;;19.73
42197;BMP280;27866;48.146;17.098;2023-05-10T20:10:21;99523.63;;;19.67
42197;BMP280;27866;48.146;17.098;2023-05-10T20:14:32;99520.03;;;19.60
42197;BMP280;27866;48.146;17.098;2023-05-10T20:18:43;99524.47;;;19.59
42197;BMP280;27866;48.146;17.098;2023-05-10T20:22:55;99533.16;;;19.60
42197;BMP280;27866;48.146;17.098;2023-05-10T20:27:06;99538.75;;;19.49
42197;BMP280;27866;48.146;17.098;2023-05-10T20:31:18;99551.19;;;19.40
42197;BMP280;27866;48.146;17.098;2023-05-10T20:35:29;99553.97;;;19.30
42197;BMP280;27866;48.146;17.098;2023-05-10T20:39:42;99549.53;;;19.23
42197;BMP280;27866;48.146;17.098;2023-05-10T20:43:53;99549.69;;;19.22
42197;BMP280;27866;48.146;17.098;2023-05-10T20:48:05;99555.09;;;19.13
42197;BMP280;27866;48.146;17.098;2023-05-10T20:52:16;99563.44;;;19.08
42197;BMP280;27866;48.146;17.098;2023-05-10T20:56:27;99557.38;;;19.00
42197;BMP280;27866;48.146;17.098;2023-05-10T21:00:38;99547.31;;;18.88
42197;BMP280;27866;48.146;17.098;2023-05-10T21:04:50;99551.41;;;18.83
42197;BMP280;27866;48.146;17.098;2023-05-10T21:09:01;99551.72;;;18.80
42197;BMP280;27866;48.146;17.098;2023-05-10T21:13:13;99545.50;;;18.81
42197;BMP280;27866;48.146;17.098;2023-05-10T21:17:24;99548.59;;;18.76
42197;BMP280;27866;48.146;17.098;2023-05-10T21:21:36;99544.00;;;18.71
42197;BMP280;27866;48.146;17.098;2023-05-10T21:25:47;99539.88;;;18.60
42197;BMP280;27866;48.146;17.098;2023-05-10T21:29:58;99539.81;;;18.53
42197;BMP280;27866;48.146;17.098;2023-05-10T21:34:09;99544.38;;;18.51
42197;BMP280;27866;48.146;17.098;2023-05-10T21:38:21;99556.00;;;18.48
42197;BMP280;27866;48.146;17.098;2023-05-10T21:42:32;99558.13;;;18.45
42197;BMP280;27866;48.146;17.098;2023-05-10T21:46:43;99564.72;;;18.49
42197;BMP280;27866;48.146;17.098;2023-05-10T21:50:55;99557.50;;;18.51
42197;BMP280;27866;48.146;17.098;2023-05-10T21:55:07;99549.31;;;18.54
42197;BMP280;27866;48.146;17.098;2023-05-10T21:59:18;99559.09;;;18.44
42197;BMP280;27866;48.146;17.098;2023-05-10T22:03:31;99569.53;;;18.36
42197;BMP280;27866;48.146;17.098;2023-05-10T22:07:42;99567.56;;;18.30
42197;BMP280;27866;48.146;17.098;2023-05-10T22:11:53;99566.25;;;18.27
42197;BMP280;27866;48.146;17.098;2023-05-10T22:16:04;99571.78;;;18.24
42197;BMP280;27866;48.146;17.098;2023-05-10T22:20:17;99570.28;;;18.21
42197;BMP280;27866;48.146;17.098;2023-05-10T22:24:28;99562.75;;;18.18
42197;BMP280;27866;48.146;17.098;2023-05-10T22:28:40;99566.84;;;18.21
42197;BMP280;27866;48.146;17.098;2023-05-10T22:32:51;99559.00;;;18.21
42197;BMP280;27866;48.146;17.098;2023-05-10T22:37:02;99563.34;;;18.13
42197;BMP280;27866;48.146;17.098;2023-05-10T22:41:14;99561.41;;;18.14
42197;BMP280;27866;48.146;17.098;2023-05-10T22:45:25;99565.53;;;18.17
42197;BMP280;27866;48.146;17.098;2023-05-10T22:49:37;99571.47;;;18.27
42197;BMP280;27866;48.146;17.098;2023-05-10T22:53:48;99569.97;;;18.24
42197;BMP280;27866;48.146;17.098;2023-05-10T22:57:59;99567.97;;;18.18
42197;BMP280;27866;48.146;17.098;2023-05-10T23:02:11;99574.34;;;18.16
42197;BMP280;27866;48.146;17.098;2023-05-10T23:06:24;99572.66;;;18.07
42197;BMP280;27866;48.146;17.098;2023-05-10T23:10:37;99573.13;;;18.03
42197;BMP280;27866;48.146;17.098;2023-05-10T23:14:49;99574.56;;;17.98
42197;BMP280;27866;48.146;17.098;2023-05-10T23:19:00;99582.38;;;17.90
42197;BMP280;27866;48.146;17.098;2023-05-10T23:23:11;99581.03;;;17.86
42197;BMP280;27866;48.146;17.098;2023-05-10T23:27:23;99572.28;;;17.78
42197;BMP280;27866;48.146;17.098;2023-05-10T23:31:38;99578.56;;;17.68
42197;BMP280;27866;48.146;17.098;2023-05-10T23:35:54;99578.25;;;17.70
42197;BMP280;27866;48.146;17.098;2023-05-10T23:40:07;99574.00;;;17.69
42197;BMP280;27866;48.146;17.098;2023-05-10T23:44:18;99577.59;;;17.68
42197;BMP280;27866;48.146;17.098;2023-05-10T23:48:29;99574.72;;;17.71
42197;BMP280;27866;48.146;17.098;2023-05-10T23:52:40;99574.72;;;17.71
42197;BMP280;27866;48.146;17.098;2023-05-10T23:56:51;99579.94;;;17.71
